LIMJ 210050Z 05011KT CAVOK 19/13 Q1018 LIMJ 210020Z 05011KT 010V080 CAVOK 19/13 Q1017 LIMJ 202350Z 05012KT CAVOK 20/13 Q1017 LIMJ 202320Z 03010KT CAVOK 20/13 Q1017 LIMJ 202250Z 03010KT CAVOK 20/13 Q1017 LIMJ 202220Z 05008KT CAVOK 20/14 Q1017 LIMJ 202150Z 04004KT CAVOK 21/14 Q1017 LIMJ 202120Z 36005KT 340V040 CAVOK 20/15 Q1016 LIMJ 202050Z 04004KT CAVOK 20/16 Q1016 LIMJ 202020Z 05003KT CAVOK 21/16 Q1016 LIMJ 201950Z 01005KT 330V070 CAVOK 21/16 Q1015 LIMJ 201920Z 04007KT CAVOK 21/17 Q1015 LIMJ 201850Z 04009KT CAVOK 21/17 Q1015 LIMJ 201820Z 03005KT 9999 FEW030 22/17 Q1014 LIMJ 201750Z 02004KT 9999 FEW030 SCT060 22/18 Q1014 LIMJ 201720Z 35005KT 9999 FEW030 SCT060 22/18 Q1014 LIMJ 201650Z 31003KT 9999 -RA FEW030 SCT060 23/18 Q1014 LIMJ 201620Z 31003KT 270V330 9999 SCT030 22/18 Q1013 LIMJ 201550Z 21005KT 9999 -RA SCT030 23/16 Q1014 LIMJ 201520Z 18005KT 9999 SCT026 23/16 Q1013 LIMJ 201450Z 17004KT 9999 FEW024 SCT035 23/16 Q1013 LIMJ 201420Z 14005KT 9999 FEW022 SCT040 23/17 Q1013 LIMJ 201350Z 14007KT 9999 FEW022 23/18 Q1013 LIMJ 201320Z 13007KT 9999 FEW022 FEW027TCU 23/17 Q1013 LIMJ 201250Z 14006KT 9999 FEW022 FEW024TCU 23/18 Q1013 LIMJ 201220Z 14007KT 9999 FEW022 FEW024TCU 23/18 Q1013 LIMJ 201150Z 15008KT 9999 FEW022 FEW024TCU 23/18 Q1013 LIMJ 201120Z 15009KT 9999 FEW022 FEW024TCU 23/19 Q1013 LIMJ 201050Z 16008KT 9999 FEW028 SCT035 23/18 Q1013 LIMJ 201020Z 15008KT 9999 FEW030 SCT035 23/18 Q1013 LIMJ 200950Z 15008KT 9999 SCT030 23/18 Q1013 LIMJ 200920Z 16003KT 140V200 9999 FEW035 23/15 Q1013 LIMJ 200850Z 12005KT 080V150 9999 FEW035 23/14 Q1013 LIMJ 200820Z VRB02KT CAVOK 24/11 Q1012 LIMJ 200750Z 01005KT 330V030 CAVOK 22/11 Q1012 LIMJ 200720Z 06009KT CAVOK 21/11 Q1011 LIMJ 200650Z 06010KT CAVOK 20/11 Q1011 LIMJ 200620Z 04008KT CAVOK 19/11 Q1011 LIMJ 200550Z 05006KT CAVOK 19/10 Q1011 LIMJ 200520Z 04006KT CAVOK 18/10 Q1011 LIMJ 200450Z 04007KT CAVOK 18/10 Q1011 LIMJ 200420Z 04006KT CAVOK 18/11 Q1011 LIMJ 200350Z 05008KT CAVOK 18/11 Q1010 LIMJ 200320Z 05007KT CAVOK 19/12 Q1011 LIMJ 200250Z 04007KT CAVOK 19/13 Q1011 LIMJ 200220Z 05005KT CAVOK 19/13 Q1010 LIMJ 200150Z 05006KT CAVOK 19/13 Q1010 LIMJ 200120Z 03005KT 340V070 CAVOK 19/13 Q1011 LIMJ 200050Z 05010KT CAVOK 19/13 Q1010 LIMJ 200020Z 05011KT CAVOK 19/14 Q1010 LIMJ 192350Z 04008KT CAVOK 19/14 Q1010 LIMJ 192320Z 04009KT CAVOK 20/14 Q1010 LIMJ 192250Z 05009KT CAVOK 20/14 Q1010 LIMJ 192220Z 04007KT 010V070 CAVOK 20/14 Q1010 LIMJ 192150Z 36004KT CAVOK 20/14 Q1010 LIMJ 192120Z 04005KT CAVOK 20/14 Q1010 LIMJ 192050Z 05005KT CAVOK 20/14 Q1009 LIMJ 192020Z 05006KT 020V090 CAVOK 20/15 Q1009 LIMJ 191950Z 05004KT CAVOK 21/15 Q1009 LIMJ 191920Z 04007KT CAVOK 22/15 Q1009 LIMJ 191850Z 04009KT CAVOK 22/15 Q1009 LIMJ 191820Z 04007KT 360V060 9999 FEW030 22/15 Q1009 LIMJ 191750Z 08009KT 050V120 9999 FEW030 23/15 Q1009 LIMJ 191720Z 09011KT 070V130 9999 FEW030 23/15 Q1008 LIMJ 191650Z 12010KT 9999 FEW033 24/16 Q1008 LIMJ 191620Z 13007KT 9999 SCT033 24/17 Q1008 LIMJ 191550Z 14009KT 9999 SCT033 24/17 Q1008 LIMJ 191520Z 14009KT 9999 SCT033 23/17 Q1008 LIMJ 191450Z 15011KT 9999 SCT033 23/17 Q1008 LIMJ 191420Z 15011KT 9999 -DZ SCT033 23/17 Q1009 LIMJ 191350Z 16009KT 9999 BKN032 23/16 Q1009 LIMJ 191320Z 19009KT 9999 BKN032 23/16 Q1009

METAR Messwerte

Zurück zur Übersicht

Ort
m ü. NN
Zeit Temperatur Taupunkt Rel.
Luftfeuchte
Luftdruck:
Altimeter
NN
Station
Wind in Beaufort
(Knoten)
Sichtweite
(Meter)
Wolken
(Meter über Grund)
Wettererscheinung
Genua
3
Di 21.09. 02:50191368 %1018
1018
1018
NO 4 (11)>= 10000Nicht signifikant 
Genua
3
Di 21.09. 02:20191368 %1017
1017
1017
NO 4 (11)
N - O
>= 10000Nicht signifikant 
Genua
3
Di 21.09. 01:50201364 %1017
1017
1017
NO 4 (12)>= 10000Nicht signifikant 
Genua
3
Di 21.09. 01:20201364 %1017
1017
1017
NNO 3 (10)>= 10000Nicht signifikant 
Genua
3
Di 21.09. 00:50201364 %1017
1017
1017
NNO 3 (10)>= 10000Nicht signifikant 
Genua
3
Di 21.09. 00:20201468 %1017
1017
1017
NO 3 (8)>= 10000Nicht signifikant 
Genua
3
Mo 20.09. 23:50211464 %1017
1017
1017
NO 2 (4)>= 10000Nicht signifikant 
Genua
3
Mo 20.09. 23:20201573 %1016
1016
1016
N 2 (5)
NNW - NO
>= 10000Nicht signifikant 
Genua
3
Mo 20.09. 22:50201678 %1016
1016
1016
NO 2 (4)>= 10000Nicht signifikant 
Genua
3
Mo 20.09. 22:20211673 %1016
1016
1016
NO 2 (3)>= 10000Nicht signifikant 
Genua
3
Mo 20.09. 21:50211673 %1015
1015
1015
N 2 (5)
NNW - ONO
>= 10000Nicht signifikant 
Genua
3
Mo 20.09. 21:20211778 %1015
1015
1015
NO 3 (7)>= 10000Nicht signifikant 
Genua
3
Mo 20.09. 20:50211778 %1015
1015
1015
NO 3 (9)>= 10000Nicht signifikant 
Genua
3
Mo 20.09. 20:20221773 %1014
1014
1014
NNO 2 (5)>= 10000Leicht bewölkt (910) 
Genua
3
Mo 20.09. 19:50221878 %1014
1014
1014
NNO 2 (4)>= 10000Wolkig (1800)
Leicht bewölkt (910)
 
Genua
3
Mo 20.09. 19:20221878 %1014
1014
1014
N 2 (5)>= 10000Wolkig (1800)
Leicht bewölkt (910)
 
Genua
3
Mo 20.09. 18:50231873 %1014
1014
1014
NW 2 (3)>= 10000Wolkig (1800)
Leicht bewölkt (910)
Regen (schwach)
Genua
3
Mo 20.09. 18:20221878 %1013
1013
1013
NW 2 (3)
W - NNW
>= 10000Wolkig (910) 
Genua
3
Mo 20.09. 17:50231665 %1014
1014
1014
SSW 2 (5)>= 10000Wolkig (910)Regen (schwach)
Genua
3
Mo 20.09. 17:20231665 %1013
1013
1013
S 2 (5)>= 10000Wolkig (790) 
Genua
3
Mo 20.09. 16:50231665 %1013
1013
1013
S 2 (4)>= 10000Wolkig (1100)
Leicht bewölkt (730)
 
Genua
3
Mo 20.09. 16:20231769 %1013
1013
1013
SO 2 (5)>= 10000Wolkig (1200)
Leicht bewölkt (670)
 
Genua
3
Mo 20.09. 15:50231873 %1013
1013
1013
SO 3 (7)>= 10000Leicht bewölkt (670) 
Genua
3
Mo 20.09. 15:20231769 %1013
1013
1013
SO 3 (7)>= 10000Leicht bewölkt (820)
Leicht bewölkt (670)
 
Genua
3
Mo 20.09. 14:50231873 %1013
1013
1013
SO 2 (6)>= 10000Leicht bewölkt (730)
Leicht bewölkt (670)
 
Genua
3
Mo 20.09. 14:20231873 %1013
1013
1013
SO 3 (7)>= 10000Leicht bewölkt (730)
Leicht bewölkt (670)
 
Genua
3
Mo 20.09. 13:50231873 %1013
1013
1013
SSO 3 (8)>= 10000Leicht bewölkt (730)
Leicht bewölkt (670)
 
Genua
3
Mo 20.09. 13:20231978 %1013
1013
1013
SSO 3 (9)>= 10000Leicht bewölkt (730)
Leicht bewölkt (670)
 
Genua
3
Mo 20.09. 12:50231873 %1013
1013
1013
SSO 3 (8)>= 10000Wolkig (1100)
Leicht bewölkt (850)
 
Genua
3
Mo 20.09. 12:20231873 %1013
1013
1013
SSO 3 (8)>= 10000Wolkig (1100)
Leicht bewölkt (910)
 
Genua
3
Mo 20.09. 11:50231873 %1013
1013
1013
SSO 3 (8)>= 10000Wolkig (910) 
Genua
3
Mo 20.09. 11:20231561 %1013
1013
1013
SSO 2 (3)
SO - SSW
>= 10000Leicht bewölkt (1100) 
Genua
3
Mo 20.09. 10:50231457 %1013
1013
1013
OSO 2 (5)
O - SSO
>= 10000Leicht bewölkt (1100) 
Genua
3
Mo 20.09. 10:20241144 %1012
1012
1012
Uml 1 (2)>= 10000Nicht signifikant 
Genua
3
Mo 20.09. 09:50221150 %1012
1012
1012
N 2 (5)
NNW - NNO
>= 10000Nicht signifikant 
Genua
3
Mo 20.09. 09:20211153 %1011
1011
1011
ONO 3 (9)>= 10000Nicht signifikant 
Genua
3
Mo 20.09. 08:50201156 %1011
1011
1011
ONO 3 (10)>= 10000Nicht signifikant 
Genua
3
Mo 20.09. 08:20191160 %1011
1011
1011
NO 3 (8)>= 10000Nicht signifikant 
Genua
3
Mo 20.09. 07:50191056 %1011
1011
1011
NO 2 (6)>= 10000Nicht signifikant 
Genua
3
Mo 20.09. 07:20181059 %1011
1011
1011
NO 2 (6)>= 10000Nicht signifikant 
Genua
3
Mo 20.09. 06:50181059 %1011
1011
1011
NO 3 (7)>= 10000Nicht signifikant 
Genua
3
Mo 20.09. 06:20181164 %1011
1011
1011
NO 2 (6)>= 10000Nicht signifikant 
Genua
3
Mo 20.09. 05:50181164 %1010
1010
1010
NO 3 (8)>= 10000Nicht signifikant 
Genua
3
Mo 20.09. 05:20191264 %1011
1011
1011
NO 3 (7)>= 10000Nicht signifikant 
Genua
3
Mo 20.09. 04:50191368 %1011
1011
1011
NO 3 (7)>= 10000Nicht signifikant 
Genua
3
Mo 20.09. 04:20191368 %1010
1010
1010
NO 2 (5)>= 10000Nicht signifikant 
Genua
3
Mo 20.09. 03:50191368 %1010
1010
1010
NO 2 (6)>= 10000Nicht signifikant 
Genua
3
Mo 20.09. 03:20191368 %1011
1011
1011
NNO 2 (5)
NNW - ONO
>= 10000Nicht signifikant 
Genua
3
Mo 20.09. 02:50191368 %1010
1010
1010
NO 3 (10)>= 10000Nicht signifikant 
Genua
3
Mo 20.09. 02:20191473 %1010
1010
1010
NO 4 (11)>= 10000Nicht signifikant 
Genua
3
Mo 20.09. 01:50191473 %1010
1010
1010
NO 3 (8)>= 10000Nicht signifikant 
Genua
3
Mo 20.09. 01:20201468 %1010
1010
1010
NO 3 (9)>= 10000Nicht signifikant 
Genua
3
Mo 20.09. 00:50201468 %1010
1010
1010
NO 3 (9)>= 10000Nicht signifikant 
Genua
3
Mo 20.09. 00:20201468 %1010
1010
1010
NO 3 (7)
N - ONO
>= 10000Nicht signifikant 
Genua
3
So 19.09. 23:50201468 %1010
1010
1010
N 2 (4)>= 10000Nicht signifikant 
Genua
3
So 19.09. 23:20201468 %1010
1010
1010
NO 2 (5)>= 10000Nicht signifikant 
Genua
3
So 19.09. 22:50201468 %1009
1009
1009
NO 2 (5)>= 10000Nicht signifikant 
Genua
3
So 19.09. 22:20201573 %1009
1009
1009
NO 2 (6)
NNO - O
>= 10000Nicht signifikant 
Genua
3
So 19.09. 21:50211569 %1009
1009
1009
NO 2 (4)>= 10000Nicht signifikant 
Genua
3
So 19.09. 21:20221565 %1009
1009
1009
NO 3 (7)>= 10000Nicht signifikant 
Genua
3
So 19.09. 20:50221565 %1009
1009
1009
NO 3 (9)>= 10000Nicht signifikant 
Genua
3
So 19.09. 20:20221565 %1009
1009
1009
NO 3 (7)
N - ONO
>= 10000Leicht bewölkt (910) 
Genua
3
So 19.09. 19:50231561 %1009
1009
1009
O 3 (9)
NO - OSO
>= 10000Leicht bewölkt (910) 
Genua
3
So 19.09. 19:20231561 %1008
1008
1008
O 4 (11)
ONO - SO
>= 10000Leicht bewölkt (910) 
Genua
3
So 19.09. 18:50241661 %1008
1008
1008
OSO 3 (10)>= 10000Leicht bewölkt (1000) 
Genua
3
So 19.09. 18:20241765 %1008
1008
1008
SO 3 (7)>= 10000Wolkig (1000) 
Genua
3
So 19.09. 17:50241765 %1008
1008
1008
SO 3 (9)>= 10000Wolkig (1000) 
Genua
3
So 19.09. 17:20231769 %1008
1008
1008
SO 3 (9)>= 10000Wolkig (1000) 
Genua
3
So 19.09. 16:50231769 %1008
1008
1008
SSO 4 (11)>= 10000Wolkig (1000) 
Genua
3
So 19.09. 16:20231769 %1009
1009
1009
SSO 4 (11)>= 10000Wolkig (1000)Nieselregen (schwach)
Genua
3
So 19.09. 15:50231665 %1009
1009
1009
SSO 3 (9)>= 10000Stark bewölkt (980) 
Genua
3
So 19.09. 15:20231665 %1009
1009
1009
S 3 (9)>= 10000Stark bewölkt (980) 

Altimeter: Einstellung am Altimeter (Höhenmesser), die Höhe 0 muss auf diesen Luftdruckwert zeigen, damit das Gerät die Stationshöhe richtig anzeigt.

NN: Luftdruck reduziert auf "Normal Null", auf Meereshöhe, dieser von der Temperatur abhängige Wert wird bisweilen unkorrekt einfach als "Luftdruck" bezeichnet. Eigentlich nur eine fiktive Größe, die es erlaubt, Stationen auf unterschiedlichen Höhen miteinander zu vergleichen.

Station: Realer Luftdruck an der Station.